Bricelyn, Minnesota
Current Conditions -  °F | °C
As of 6:14 AM on Friday 31 Oct 2014 (Local Time) from KAEL Reporting Station
Clear Clear  
Wind Chill: 15°   Ceiling: Unl
Heat Index: 25°   Visibility: 10mi
Dew Point: 18°   Wind: 10mph
Humidity: 74%   Direction: 340°NNW
Pressure: 30.44"   Gusts: NA
Location:  43.56°N, 93.81°W
Report Text: KAEL 311114Z AUTO 34009KT 10SM CLR M04/M08 A3044 RMK AO2
Loading
Personal Weather Stations






























Interactive Weather Map
Tropical Storm Tracking
New forecast layout! Learn more

10-Day Weather Forecast

Advertisements
Track Severe Weather on mobile